sensor_id;sensor_type;location;lat;lon;timestamp;P1;durP1;ratioP1;P2;durP2;ratioP2
76194;SDS011;64964;48.694;21.206;2023-02-01T00:01:25;12.23;;;5.40;;
76194;SDS011;64964;48.694;21.206;2023-02-01T00:03:50;11.97;;;5.53;;
76194;SDS011;64964;48.694;21.206;2023-02-01T00:06:15;11.57;;;5.17;;
76194;SDS011;64964;48.694;21.206;2023-02-01T00:08:41;9.10;;;4.80;;
76194;SDS011;64964;48.694;21.206;2023-02-01T00:11:07;13.23;;;5.73;;
76194;SDS011;64964;48.694;21.206;2023-02-01T00:13:35;11.95;;;5.80;;
76194;SDS011;64964;48.694;21.206;2023-02-01T00:16:09;12.30;;;5.60;;
76194;SDS011;64964;48.694;21.206;2023-02-01T00:18:41;11.43;;;5.13;;
76194;SDS011;64964;48.694;21.206;2023-02-01T00:21:06;10.70;;;5.47;;
76194;SDS011;64964;48.694;21.206;2023-02-01T00:23:32;10.37;;;5.10;;
76194;SDS011;64964;48.694;21.206;2023-02-01T00:26:03;11.27;;;5.30;;
76194;SDS011;64964;48.694;21.206;2023-02-01T00:28:29;11.97;;;5.07;;
76194;SDS011;64964;48.694;21.206;2023-02-01T00:30:58;9.82;;;4.63;;
76194;SDS011;64964;48.694;21.206;2023-02-01T00:33:25;12.87;;;5.30;;
76194;SDS011;64964;48.694;21.206;2023-02-01T00:35:50;11.30;;;4.75;;
76194;SDS011;64964;48.694;21.206;2023-02-01T00:38:16;11.17;;;5.17;;
76194;SDS011;64964;48.694;21.206;2023-02-01T00:40:41;11.07;;;5.27;;
76194;SDS011;64964;48.694;21.206;2023-02-01T00:43:07;11.40;;;5.27;;
76194;SDS011;64964;48.694;21.206;2023-02-01T00:45:32;13.23;;;5.43;;
76194;SDS011;64964;48.694;21.206;2023-02-01T00:47:57;13.05;;;4.72;;
76194;SDS011;64964;48.694;21.206;2023-02-01T00:50:23;8.17;;;4.30;;
76194;SDS011;64964;48.694;21.206;2023-02-01T00:52:48;10.23;;;5.17;;
76194;SDS011;64964;48.694;21.206;2023-02-01T00:55:13;11.43;;;5.17;;
76194;SDS011;64964;48.694;21.206;2023-02-01T00:57:39;8.63;;;4.37;;
76194;SDS011;64964;48.694;21.206;2023-02-01T01:00:04;9.23;;;4.77;;
76194;SDS011;64964;48.694;21.206;2023-02-01T01:02:30;10.10;;;4.75;;
76194;SDS011;64964;48.694;21.206;2023-02-01T01:04:55;12.97;;;4.77;;
76194;SDS011;64964;48.694;21.206;2023-02-01T01:07:20;11.73;;;4.80;;
76194;SDS011;64964;48.694;21.206;2023-02-01T01:09:46;12.18;;;5.30;;
76194;SDS011;64964;48.694;21.206;2023-02-01T01:12:11;13.20;;;5.27;;
76194;SDS011;64964;48.694;21.206;2023-02-01T01:14:37;7.30;;;3.30;;
76194;SDS011;64964;48.694;21.206;2023-02-01T01:17:02;12.13;;;4.60;;
76194;SDS011;64964;48.694;21.206;2023-02-01T01:19:27;10.10;;;5.13;;
76194;SDS011;64964;48.694;21.206;2023-02-01T01:21:53;12.03;;;5.10;;
76194;SDS011;64964;48.694;21.206;2023-02-01T01:24:18;7.68;;;4.30;;
76194;SDS011;64964;48.694;21.206;2023-02-01T01:26:43;11.43;;;4.03;;
76194;SDS011;64964;48.694;21.206;2023-02-01T01:29:09;8.33;;;4.13;;
76194;SDS011;64964;48.694;21.206;2023-02-01T01:31:35;6.50;;;3.63;;
76194;SDS011;64964;48.694;21.206;2023-02-01T01:34:00;6.97;;;3.27;;
76194;SDS011;64964;48.694;21.206;2023-02-01T01:36:26;9.20;;;3.83;;
76194;SDS011;64964;48.694;21.206;2023-02-01T01:38:52;7.75;;;3.75;;
76194;SDS011;64964;48.694;21.206;2023-02-01T01:41:19;7.45;;;3.40;;
76194;SDS011;64964;48.694;21.206;2023-02-01T01:46:19;10.30;;;3.97;;
76194;SDS011;64964;48.694;21.206;2023-02-01T01:49:09;6.57;;;3.40;;
76194;SDS011;64964;48.694;21.206;2023-02-01T01:51:39;5.93;;;3.10;;
76194;SDS011;64964;48.694;21.206;2023-02-01T01:54:16;9.05;;;3.63;;
76194;SDS011;64964;48.694;21.206;2023-02-01T01:56:53;6.80;;;3.00;;
76194;SDS011;64964;48.694;21.206;2023-02-01T01:59:22;7.90;;;3.53;;
76194;SDS011;64964;48.694;21.206;2023-02-01T02:01:49;7.55;;;3.38;;
76194;SDS011;64964;48.694;21.206;2023-02-01T02:04:15;6.88;;;3.33;;
76194;SDS011;64964;48.694;21.206;2023-02-01T02:09:13;8.90;;;3.50;;
76194;SDS011;64964;48.694;21.206;2023-02-01T02:11:38;7.10;;;3.45;;
76194;SDS011;64964;48.694;21.206;2023-02-01T02:14:05;8.82;;;3.70;;
76194;SDS011;64964;48.694;21.206;2023-02-01T02:25:22;5.40;;;3.03;;
76194;SDS011;64964;48.694;21.206;2023-02-01T02:31:15;7.90;;;3.07;;
76194;SDS011;64964;48.694;21.206;2023-02-01T02:36:54;4.88;;;2.80;;
76194;SDS011;64964;48.694;21.206;2023-02-01T02:48:10;9.02;;;3.35;;
76194;SDS011;64964;48.694;21.206;2023-02-01T02:50:50;8.55;;;3.28;;
76194;SDS011;64964;48.694;21.206;2023-02-01T02:53:47;12.20;;;5.45;;
76194;SDS011;64964;48.694;21.206;2023-02-01T02:56:45;12.48;;;4.47;;
76194;SDS011;64964;48.694;21.206;2023-02-01T02:59:30;8.47;;;3.97;;
76194;SDS011;64964;48.694;21.206;2023-02-01T03:02:16;7.43;;;3.80;;
76194;SDS011;64964;48.694;21.206;2023-02-01T03:05:01;6.28;;;3.30;;
76194;SDS011;64964;48.694;21.206;2023-02-01T03:07:46;7.60;;;3.37;;
76194;SDS011;64964;48.694;21.206;2023-02-01T03:10:23;7.97;;;3.72;;
76194;SDS011;64964;48.694;21.206;2023-02-01T03:12:53;8.50;;;3.72;;
76194;SDS011;64964;48.694;21.206;2023-02-01T03:15:33;10.23;;;3.83;;
76194;SDS011;64964;48.694;21.206;2023-02-01T03:18:04;8.10;;;2.97;;
76194;SDS011;64964;48.694;21.206;2023-02-01T03:20:37;4.35;;;2.25;;
76194;SDS011;64964;48.694;21.206;2023-02-01T03:23:05;7.88;;;3.30;;
76194;SDS011;64964;48.694;21.206;2023-02-01T03:25:31;5.78;;;3.17;;
76194;SDS011;64964;48.694;21.206;2023-02-01T03:28:06;4.80;;;3.03;;
76194;SDS011;64964;48.694;21.206;2023-02-01T03:30:40;5.40;;;3.10;;
76194;SDS011;64964;48.694;21.206;2023-02-01T03:33:12;6.40;;;3.00;;
76194;SDS011;64964;48.694;21.206;2023-02-01T03:35:49;4.30;;;2.80;;
76194;SDS011;64964;48.694;21.206;2023-02-01T03:43:58;8.50;;;2.83;;
76194;SDS011;64964;48.694;21.206;2023-02-01T03:46:35;7.10;;;2.78;;
76194;SDS011;64964;48.694;21.206;2023-02-01T03:49:09;7.93;;;3.13;;
76194;SDS011;64964;48.694;21.206;2023-02-01T03:51:38;6.93;;;2.90;;
76194;SDS011;64964;48.694;21.206;2023-02-01T03:54:06;7.93;;;3.42;;
76194;SDS011;64964;48.694;21.206;2023-02-01T03:56:36;6.60;;;2.97;;
76194;SDS011;64964;48.694;21.206;2023-02-01T03:59:03;7.85;;;3.60;;
76194;SDS011;64964;48.694;21.206;2023-02-01T04:01:29;8.40;;;3.30;;
76194;SDS011;64964;48.694;21.206;2023-02-01T04:03:56;6.97;;;3.20;;
76194;SDS011;64964;48.694;21.206;2023-02-01T04:06:22;7.47;;;3.40;;
76194;SDS011;64964;48.694;21.206;2023-02-01T04:08:48;9.18;;;3.72;;
76194;SDS011;64964;48.694;21.206;2023-02-01T04:11:14;7.67;;;3.17;;
76194;SDS011;64964;48.694;21.206;2023-02-01T04:13:39;6.00;;;3.38;;
76194;SDS011;64964;48.694;21.206;2023-02-01T04:16:05;7.87;;;3.40;;
76194;SDS011;64964;48.694;21.206;2023-02-01T04:18:30;4.77;;;2.80;;
76194;SDS011;64964;48.694;21.206;2023-02-01T04:20:56;4.07;;;2.60;;
76194;SDS011;64964;48.694;21.206;2023-02-01T04:23:21;5.57;;;2.73;;
76194;SDS011;64964;48.694;21.206;2023-02-01T04:25:46;4.93;;;2.93;;
76194;SDS011;64964;48.694;21.206;2023-02-01T04:28:12;6.97;;;2.93;;
76194;SDS011;64964;48.694;21.206;2023-02-01T04:30:37;4.80;;;2.47;;
76194;SDS011;64964;48.694;21.206;2023-02-01T04:33:03;4.40;;;2.03;;
76194;SDS011;64964;48.694;21.206;2023-02-01T04:35:31;4.88;;;2.38;;
76194;SDS011;64964;48.694;21.206;2023-02-01T04:37:57;5.33;;;2.07;;
76194;SDS011;64964;48.694;21.206;2023-02-01T04:40:22;3.37;;;2.07;;
76194;SDS011;64964;48.694;21.206;2023-02-01T04:42:47;3.90;;;2.17;;
76194;SDS011;64964;48.694;21.206;2023-02-01T04:45:13;4.30;;;2.10;;
76194;SDS011;64964;48.694;21.206;2023-02-01T04:47:38;4.60;;;2.53;;
76194;SDS011;64964;48.694;21.206;2023-02-01T04:50:04;5.87;;;2.60;;
76194;SDS011;64964;48.694;21.206;2023-02-01T04:52:31;4.45;;;2.28;;
76194;SDS011;64964;48.694;21.206;2023-02-01T04:54:56;5.22;;;2.53;;
76194;SDS011;64964;48.694;21.206;2023-02-01T04:57:24;6.63;;;2.80;;
76194;SDS011;64964;48.694;21.206;2023-02-01T04:59:49;5.33;;;2.87;;
76194;SDS011;64964;48.694;21.206;2023-02-01T05:02:15;8.37;;;3.43;;
76194;SDS011;64964;48.694;21.206;2023-02-01T05:04:40;7.63;;;3.37;;
76194;SDS011;64964;48.694;21.206;2023-02-01T05:07:05;6.07;;;3.08;;
76194;SDS011;64964;48.694;21.206;2023-02-01T05:09:31;9.77;;;3.70;;
76194;SDS011;64964;48.694;21.206;2023-02-01T05:11:56;6.57;;;3.30;;
76194;SDS011;64964;48.694;21.206;2023-02-01T05:14:40;6.57;;;3.47;;
76194;SDS011;64964;48.694;21.206;2023-02-01T05:17:05;8.67;;;4.10;;
76194;SDS011;64964;48.694;21.206;2023-02-01T05:19:31;6.70;;;3.50;;
76194;SDS011;64964;48.694;21.206;2023-02-01T05:21:56;7.27;;;3.43;;
76194;SDS011;64964;48.694;21.206;2023-02-01T05:24:22;12.68;;;4.10;;
76194;SDS011;64964;48.694;21.206;2023-02-01T05:26:48;12.30;;;5.07;;
76194;SDS011;64964;48.694;21.206;2023-02-01T05:29:14;9.82;;;4.13;;
76194;SDS011;64964;48.694;21.206;2023-02-01T05:31:40;8.57;;;3.97;;
76194;SDS011;64964;48.694;21.206;2023-02-01T05:34:06;11.07;;;4.80;;
76194;SDS011;64964;48.694;21.206;2023-02-01T05:36:32;13.23;;;5.18;;
76194;SDS011;64964;48.694;21.206;2023-02-01T05:38:57;11.27;;;4.55;;
76194;SDS011;64964;48.694;21.206;2023-02-01T05:41:23;8.47;;;4.27;;
76194;SDS011;64964;48.694;21.206;2023-02-01T05:43:48;12.30;;;4.67;;
76194;SDS011;64964;48.694;21.206;2023-02-01T05:46:13;7.47;;;4.13;;
76194;SDS011;64964;48.694;21.206;2023-02-01T05:48:39;12.23;;;5.20;;
76194;SDS011;64964;48.694;21.206;2023-02-01T05:51:05;17.20;;;5.93;;
76194;SDS011;64964;48.694;21.206;2023-02-01T05:53:31;13.50;;;6.32;;
76194;SDS011;64964;48.694;21.206;2023-02-01T05:55:56;15.20;;;6.77;;
76194;SDS011;64964;48.694;21.206;2023-02-01T05:58:22;13.20;;;6.40;;
76194;SDS011;64964;48.694;21.206;2023-02-01T06:00:47;13.27;;;6.20;;
76194;SDS011;64964;48.694;21.206;2023-02-01T06:03:12;14.37;;;6.50;;
76194;SDS011;64964;48.694;21.206;2023-02-01T06:05:38;13.63;;;6.10;;
76194;SDS011;64964;48.694;21.206;2023-02-01T06:08:03;16.43;;;6.50;;
76194;SDS011;64964;48.694;21.206;2023-02-01T06:10:29;17.80;;;6.87;;
76194;SDS011;64964;48.694;21.206;2023-02-01T06:12:54;11.30;;;5.63;;
76194;SDS011;64964;48.694;21.206;2023-02-01T06:15:19;10.43;;;5.17;;
76194;SDS011;64964;48.694;21.206;2023-02-01T06:17:45;10.93;;;5.90;;
76194;SDS011;64964;48.694;21.206;2023-02-01T06:20:11;16.23;;;7.27;;
76194;SDS011;64964;48.694;21.206;2023-02-01T06:22:38;12.55;;;5.88;;
76194;SDS011;64964;48.694;21.206;2023-02-01T06:25:04;12.20;;;5.50;;
76194;SDS011;64964;48.694;21.206;2023-02-01T06:27:31;13.93;;;6.37;;
76194;SDS011;64964;48.694;21.206;2023-02-01T06:29:57;11.43;;;5.85;;
76194;SDS011;64964;48.694;21.206;2023-02-01T06:32:22;12.10;;;5.93;;
76194;SDS011;64964;48.694;21.206;2023-02-01T06:34:48;10.52;;;5.60;;
76194;SDS011;64964;48.694;21.206;2023-02-01T06:37:14;10.75;;;5.53;;
76194;SDS011;64964;48.694;21.206;2023-02-01T06:39:39;12.83;;;5.27;;
76194;SDS011;64964;48.694;21.206;2023-02-01T06:42:04;11.60;;;5.17;;
76194;SDS011;64964;48.694;21.206;2023-02-01T06:44:30;12.03;;;5.20;;
76194;SDS011;64964;48.694;21.206;2023-02-01T06:46:55;11.50;;;5.78;;
76194;SDS011;64964;48.694;21.206;2023-02-01T06:49:21;10.33;;;5.37;;
76194;SDS011;64964;48.694;21.206;2023-02-01T06:51:46;10.80;;;6.00;;
76194;SDS011;64964;48.694;21.206;2023-02-01T06:54:12;8.07;;;4.70;;
76194;SDS011;64964;48.694;21.206;2023-02-01T06:56:38;10.75;;;5.70;;
76194;SDS011;64964;48.694;21.206;2023-02-01T06:59:04;9.40;;;5.80;;
76194;SDS011;64964;48.694;21.206;2023-02-01T07:01:30;8.93;;;4.53;;
76194;SDS011;64964;48.694;21.206;2023-02-01T07:03:56;8.02;;;4.43;;
76194;SDS011;64964;48.694;21.206;2023-02-01T07:06:21;9.10;;;4.53;;
76194;SDS011;64964;48.694;21.206;2023-02-01T07:08:46;9.60;;;4.50;;
76194;SDS011;64964;48.694;21.206;2023-02-01T07:11:12;8.97;;;4.80;;
76194;SDS011;64964;48.694;21.206;2023-02-01T07:13:39;9.00;;;4.50;;
76194;SDS011;64964;48.694;21.206;2023-02-01T07:16:10;7.32;;;4.45;;
76194;SDS011;64964;48.694;21.206;2023-02-01T07:18:37;7.03;;;4.00;;
76194;SDS011;64964;48.694;21.206;2023-02-01T07:21:03;10.50;;;5.10;;
76194;SDS011;64964;48.694;21.206;2023-02-01T07:23:28;7.73;;;3.93;;
76194;SDS011;64964;48.694;21.206;2023-02-01T07:25:57;9.00;;;4.30;;
76194;SDS011;64964;48.694;21.206;2023-02-01T07:28:25;9.30;;;4.97;;
76194;SDS011;64964;48.694;21.206;2023-02-01T07:30:51;6.95;;;3.67;;
76194;SDS011;64964;48.694;21.206;2023-02-01T07:33:20;5.75;;;2.88;;
76194;SDS011;64964;48.694;21.206;2023-02-01T07:35:47;6.20;;;2.83;;
76194;SDS011;64964;48.694;21.206;2023-02-01T07:38:13;9.05;;;4.68;;
76194;SDS011;64964;48.694;21.206;2023-02-01T07:40:39;14.68;;;6.07;;
76194;SDS011;64964;48.694;21.206;2023-02-01T07:43:04;15.27;;;6.27;;
76194;SDS011;64964;48.694;21.206;2023-02-01T07:45:31;10.80;;;4.57;;
76194;SDS011;64964;48.694;21.206;2023-02-01T07:47:56;12.13;;;6.18;;
76194;SDS011;64964;48.694;21.206;2023-02-01T07:50:22;9.13;;;5.30;;
76194;SDS011;64964;48.694;21.206;2023-02-01T07:52:47;11.13;;;5.97;;
76194;SDS011;64964;48.694;21.206;2023-02-01T07:55:13;13.70;;;6.87;;
76194;SDS011;64964;48.694;21.206;2023-02-01T07:57:38;11.18;;;6.13;;
76194;SDS011;64964;48.694;21.206;2023-02-01T08:00:04;10.73;;;5.87;;
76194;SDS011;64964;48.694;21.206;2023-02-01T08:02:48;5.93;;;3.40;;
76194;SDS011;64964;48.694;21.206;2023-02-01T08:05:13;3.37;;;2.37;;
76194;SDS011;64964;48.694;21.206;2023-02-01T08:07:38;5.50;;;2.90;;
76194;SDS011;64964;48.694;21.206;2023-02-01T08:10:04;4.33;;;2.40;;
76194;SDS011;64964;48.694;21.206;2023-02-01T08:12:35;8.27;;;3.33;;
76194;SDS011;64964;48.694;21.206;2023-02-01T08:15:01;5.87;;;2.90;;
76194;SDS011;64964;48.694;21.206;2023-02-01T08:20:15;4.20;;;2.37;;
76194;SDS011;64964;48.694;21.206;2023-02-01T08:22:41;4.38;;;1.85;;
76194;SDS011;64964;48.694;21.206;2023-02-01T08:25:07;4.57;;;2.70;;
76194;SDS011;64964;48.694;21.206;2023-02-01T08:27:33;4.30;;;2.67;;
76194;SDS011;64964;48.694;21.206;2023-02-01T08:29:59;4.35;;;2.33;;
76194;SDS011;64964;48.694;21.206;2023-02-01T08:32:24;5.73;;;2.63;;
76194;SDS011;64964;48.694;21.206;2023-02-01T08:34:50;4.50;;;2.50;;
76194;SDS011;64964;48.694;21.206;2023-02-01T08:37:15;4.23;;;2.67;;
76194;SDS011;64964;48.694;21.206;2023-02-01T08:39:41;4.80;;;2.70;;
76194;SDS011;64964;48.694;21.206;2023-02-01T08:42:08;4.95;;;2.97;;
76194;SDS011;64964;48.694;21.206;2023-02-01T08:44:52;4.53;;;2.70;;
76194;SDS011;64964;48.694;21.206;2023-02-01T08:47:17;6.30;;;2.53;;
76194;SDS011;64964;48.694;21.206;2023-02-01T08:49:43;4.80;;;2.63;;
76194;SDS011;64964;48.694;21.206;2023-02-01T08:52:08;3.93;;;2.60;;
76194;SDS011;64964;48.694;21.206;2023-02-01T08:54:33;4.45;;;2.53;;
76194;SDS011;64964;48.694;21.206;2023-02-01T08:56:59;8.53;;;2.50;;
76194;SDS011;64964;48.694;21.206;2023-02-01T08:59:24;3.73;;;2.50;;
76194;SDS011;64964;48.694;21.206;2023-02-01T09:01:49;3.37;;;2.50;;
76194;SDS011;64964;48.694;21.206;2023-02-01T09:04:15;3.10;;;2.40;;
76194;SDS011;64964;48.694;21.206;2023-02-01T09:06:41;6.30;;;2.47;;
76194;SDS011;64964;48.694;21.206;2023-02-01T09:09:06;5.53;;;2.80;;
76194;SDS011;64964;48.694;21.206;2023-02-01T09:11:31;4.47;;;2.70;;
76194;SDS011;64964;48.694;21.206;2023-02-01T09:13:57;3.77;;;2.80;;
76194;SDS011;64964;48.694;21.206;2023-02-01T09:16:22;4.93;;;2.93;;
76194;SDS011;64964;48.694;21.206;2023-02-01T09:18:48;4.07;;;2.60;;
76194;SDS011;64964;48.694;21.206;2023-02-01T09:21:13;3.93;;;2.80;;
76194;SDS011;64964;48.694;21.206;2023-02-01T09:23:39;4.03;;;2.20;;
76194;SDS011;64964;48.694;21.206;2023-02-01T09:26:04;2.33;;;1.90;;
76194;SDS011;64964;48.694;21.206;2023-02-01T09:28:30;2.97;;;2.03;;
76194;SDS011;64964;48.694;21.206;2023-02-01T09:30:56;2.95;;;2.00;;
76194;SDS011;64964;48.694;21.206;2023-02-01T09:33:22;4.78;;;1.98;;
76194;SDS011;64964;48.694;21.206;2023-02-01T09:35:55;2.77;;;1.97;;
76194;SDS011;64964;48.694;21.206;2023-02-01T09:38:28;3.40;;;2.03;;
76194;SDS011;64964;48.694;21.206;2023-02-01T09:40:54;3.15;;;1.95;;
76194;SDS011;64964;48.694;21.206;2023-02-01T09:48:31;4.32;;;2.83;;
76194;SDS011;64964;48.694;21.206;2023-02-01T09:51:00;6.30;;;2.70;;
76194;SDS011;64964;48.694;21.206;2023-02-01T09:53:31;5.43;;;3.20;;
76194;SDS011;64964;48.694;21.206;2023-02-01T09:56:06;4.45;;;3.10;;
76194;SDS011;64964;48.694;21.206;2023-02-01T09:58:39;4.57;;;3.10;;
76194;SDS011;64964;48.694;21.206;2023-02-01T10:01:27;8.57;;;4.25;;
76194;SDS011;64964;48.694;21.206;2023-02-01T10:06:52;5.93;;;3.30;;
76194;SDS011;64964;48.694;21.206;2023-02-01T10:09:44;4.72;;;2.92;;
76194;SDS011;64964;48.694;21.206;2023-02-01T10:26:19;4.47;;;2.30;;
76194;SDS011;64964;48.694;21.206;2023-02-01T10:29:20;3.22;;;2.38;;
76194;SDS011;64964;48.694;21.206;2023-02-01T10:31:43;3.77;;;2.30;;
76194;SDS011;64964;48.694;21.206;2023-02-01T10:34:13;3.15;;;2.50;;
76194;SDS011;64964;48.694;21.206;2023-02-01T10:36:49;3.72;;;2.35;;
76194;SDS011;64964;48.694;21.206;2023-02-01T10:39:20;3.22;;;2.22;;
76194;SDS011;64964;48.694;21.206;2023-02-01T10:41:46;4.87;;;2.50;;
76194;SDS011;64964;48.694;21.206;2023-02-01T10:44:14;3.80;;;2.40;;
76194;SDS011;64964;48.694;21.206;2023-02-01T10:46:43;3.53;;;2.30;;
76194;SDS011;64964;48.694;21.206;2023-02-01T10:49:12;3.53;;;2.23;;
76194;SDS011;64964;48.694;21.206;2023-02-01T10:51:43;3.88;;;2.20;;
76194;SDS011;64964;48.694;21.206;2023-02-01T10:54:16;4.25;;;2.10;;
76194;SDS011;64964;48.694;21.206;2023-02-01T10:56:45;5.63;;;2.28;;
76194;SDS011;64964;48.694;21.206;2023-02-01T10:59:19;5.10;;;2.20;;
76194;SDS011;64964;48.694;21.206;2023-02-01T11:01:48;3.97;;;1.98;;
76194;SDS011;64964;48.694;21.206;2023-02-01T11:04:18;3.13;;;2.08;;
76194;SDS011;64964;48.694;21.206;2023-02-01T11:09:38;3.92;;;1.60;;
76194;SDS011;64964;48.694;21.206;2023-02-01T11:12:07;4.63;;;1.70;;
76194;SDS011;64964;48.694;21.206;2023-02-01T11:17:45;4.15;;;2.08;;
76194;SDS011;64964;48.694;21.206;2023-02-01T11:20:14;3.70;;;1.88;;
76194;SDS011;64964;48.694;21.206;2023-02-01T11:22:47;2.92;;;1.90;;
76194;SDS011;64964;48.694;21.206;2023-02-01T11:25:18;5.00;;;2.00;;
76194;SDS011;64964;48.694;21.206;2023-02-01T11:27:44;3.30;;;1.70;;
76194;SDS011;64964;48.694;21.206;2023-02-01T11:30:13;3.75;;;1.92;;
76194;SDS011;64964;48.694;21.206;2023-02-01T11:32:42;2.95;;;1.98;;
76194;SDS011;64964;48.694;21.206;2023-02-01T11:35:08;2.87;;;1.77;;
76194;SDS011;64964;48.694;21.206;2023-02-01T11:37:41;3.78;;;2.13;;
76194;SDS011;64964;48.694;21.206;2023-02-01T11:43:07;3.70;;;2.30;;
76194;SDS011;64964;48.694;21.206;2023-02-01T11:45:41;3.65;;;1.90;;
76194;SDS011;64964;48.694;21.206;2023-02-01T11:48:17;3.67;;;2.08;;
76194;SDS011;64964;48.694;21.206;2023-02-01T11:56:32;4.00;;;1.80;;
76194;SDS011;64964;48.694;21.206;2023-02-01T12:01:52;3.00;;;1.83;;
76194;SDS011;64964;48.694;21.206;2023-02-01T12:04:55;4.68;;;2.20;;
76194;SDS011;64964;48.694;21.206;2023-02-01T12:07:35;2.67;;;2.03;;
76194;SDS011;64964;48.694;21.206;2023-02-01T12:15:21;5.83;;;2.37;;
76194;SDS011;64964;48.694;21.206;2023-02-01T12:37:18;5.28;;;2.25;;
76194;SDS011;64964;48.694;21.206;2023-02-01T12:42:37;5.40;;;2.40;;
76194;SDS011;64964;48.694;21.206;2023-02-01T12:45:16;3.88;;;2.00;;
76194;SDS011;64964;48.694;21.206;2023-02-01T12:47:51;6.22;;;2.10;;
76194;SDS011;64964;48.694;21.206;2023-02-01T12:50:28;6.00;;;2.30;;
76194;SDS011;64964;48.694;21.206;2023-02-01T12:52:58;4.00;;;2.30;;
76194;SDS011;64964;48.694;21.206;2023-02-01T12:55:35;6.23;;;2.67;;
76194;SDS011;64964;48.694;21.206;2023-02-01T12:58:39;4.70;;;2.58;;
76194;SDS011;64964;48.694;21.206;2023-02-01T13:01:01;5.70;;;2.70;;
76194;SDS011;64964;48.694;21.206;2023-02-01T13:06:51;8.05;;;3.25;;
76194;SDS011;64964;48.694;21.206;2023-02-01T13:11:51;8.00;;;3.53;;
76194;SDS011;64964;48.694;21.206;2023-02-01T13:17:15;6.00;;;2.67;;
76194;SDS011;64964;48.694;21.206;2023-02-01T13:24:53;5.63;;;2.90;;
76194;SDS011;64964;48.694;21.206;2023-02-01T13:27:23;5.00;;;2.67;;
76194;SDS011;64964;48.694;21.206;2023-02-01T13:29:56;7.15;;;2.80;;
76194;SDS011;64964;48.694;21.206;2023-02-01T13:32:29;5.63;;;2.53;;
76194;SDS011;64964;48.694;21.206;2023-02-01T13:35:08;6.43;;;3.03;;
76194;SDS011;64964;48.694;21.206;2023-02-01T13:38:37;6.30;;;2.60;;
76194;SDS011;64964;48.694;21.206;2023-02-01T13:40:50;6.28;;;2.28;;
76194;SDS011;64964;48.694;21.206;2023-02-01T13:43:32;3.80;;;2.10;;
76194;SDS011;64964;48.694;21.206;2023-02-01T13:46:02;7.90;;;2.37;;
76194;SDS011;64964;48.694;21.206;2023-02-01T13:48:39;5.82;;;2.50;;
76194;SDS011;64964;48.694;21.206;2023-02-01T13:51:11;5.13;;;2.10;;
76194;SDS011;64964;48.694;21.206;2023-02-01T13:53:38;3.42;;;1.50;;
76194;SDS011;64964;48.694;21.206;2023-02-01T13:58:48;3.57;;;1.50;;
76194;SDS011;64964;48.694;21.206;2023-02-01T14:03:52;2.47;;;1.50;;
76194;SDS011;64964;48.694;21.206;2023-02-01T14:09:13;4.97;;;1.60;;
76194;SDS011;64964;48.694;21.206;2023-02-01T14:16:39;4.30;;;1.73;;
76194;SDS011;64964;48.694;21.206;2023-02-01T14:19:07;6.37;;;1.80;;
76194;SDS011;64964;48.694;21.206;2023-02-01T14:21:35;3.27;;;1.33;;
76194;SDS011;64964;48.694;21.206;2023-02-01T14:26:52;2.50;;;1.50;;
76194;SDS011;64964;48.694;21.206;2023-02-01T14:37:33;2.17;;;1.60;;
76194;SDS011;64964;48.694;21.206;2023-02-01T14:40:01;3.55;;;1.83;;
76194;SDS011;64964;48.694;21.206;2023-02-01T14:58:14;3.50;;;1.92;;
76194;SDS011;64964;48.694;21.206;2023-02-01T15:01:00;5.28;;;2.40;;
76194;SDS011;64964;48.694;21.206;2023-02-01T15:08:58;5.90;;;2.97;;
76194;SDS011;64964;48.694;21.206;2023-02-01T15:11:26;4.43;;;2.33;;
76194;SDS011;64964;48.694;21.206;2023-02-01T15:13:52;5.28;;;2.30;;
76194;SDS011;64964;48.694;21.206;2023-02-01T15:16:19;4.40;;;2.20;;
76194;SDS011;64964;48.694;21.206;2023-02-01T15:18:47;9.50;;;4.55;;
76194;SDS011;64964;48.694;21.206;2023-02-01T15:21:23;9.63;;;5.78;;
76194;SDS011;64964;48.694;21.206;2023-02-01T15:23:50;7.22;;;3.50;;
76194;SDS011;64964;48.694;21.206;2023-02-01T15:26:34;5.13;;;2.47;;
76194;SDS011;64964;48.694;21.206;2023-02-01T15:29:00;4.32;;;2.83;;
76194;SDS011;64964;48.694;21.206;2023-02-01T15:31:32;4.77;;;2.67;;
76194;SDS011;64964;48.694;21.206;2023-02-01T15:34:02;6.25;;;2.63;;
76194;SDS011;64964;48.694;21.206;2023-02-01T15:36:28;12.07;;;5.78;;
76194;SDS011;64964;48.694;21.206;2023-02-01T15:41:37;6.03;;;2.70;;
76194;SDS011;64964;48.694;21.206;2023-02-01T15:44:04;5.90;;;3.10;;
76194;SDS011;64964;48.694;21.206;2023-02-01T15:46:42;7.03;;;3.83;;
76194;SDS011;64964;48.694;21.206;2023-02-01T15:52:18;12.63;;;6.82;;
76194;SDS011;64964;48.694;21.206;2023-02-01T15:54:49;10.20;;;5.20;;
76194;SDS011;64964;48.694;21.206;2023-02-01T15:57:23;7.65;;;4.55;;
76194;SDS011;64964;48.694;21.206;2023-02-01T15:59:56;12.83;;;7.03;;
76194;SDS011;64964;48.694;21.206;2023-02-01T16:02:33;10.18;;;6.10;;
76194;SDS011;64964;48.694;21.206;2023-02-01T16:05:03;11.63;;;6.43;;
76194;SDS011;64964;48.694;21.206;2023-02-01T16:07:30;9.25;;;5.20;;
76194;SDS011;64964;48.694;21.206;2023-02-01T16:09:58;15.85;;;8.57;;
76194;SDS011;64964;48.694;21.206;2023-02-01T16:12:33;34.27;;;12.87;;
76194;SDS011;64964;48.694;21.206;2023-02-01T16:15:03;20.15;;;9.20;;
76194;SDS011;64964;48.694;21.206;2023-02-01T16:17:29;15.93;;;8.63;;
76194;SDS011;64964;48.694;21.206;2023-02-01T16:19:54;26.50;;;10.73;;
76194;SDS011;64964;48.694;21.206;2023-02-01T16:22:20;40.40;;;16.07;;
76194;SDS011;64964;48.694;21.206;2023-02-01T16:24:45;12.60;;;5.40;;
76194;SDS011;64964;48.694;21.206;2023-02-01T16:27:11;8.03;;;3.30;;
76194;SDS011;64964;48.694;21.206;2023-02-01T16:29:36;6.33;;;3.00;;
76194;SDS011;64964;48.694;21.206;2023-02-01T16:32:02;5.17;;;2.27;;
76194;SDS011;64964;48.694;21.206;2023-02-01T16:34:29;5.65;;;2.75;;
76194;SDS011;64964;48.694;21.206;2023-02-01T16:36:55;4.80;;;2.87;;
76194;SDS011;64964;48.694;21.206;2023-02-01T16:39:22;5.03;;;2.33;;
76194;SDS011;64964;48.694;21.206;2023-02-01T16:41:48;5.80;;;2.47;;
76194;SDS011;64964;48.694;21.206;2023-02-01T16:44:13;5.65;;;2.97;;
76194;SDS011;64964;48.694;21.206;2023-02-01T16:46:39;4.43;;;2.93;;
76194;SDS011;64964;48.694;21.206;2023-02-01T16:49:15;7.95;;;3.70;;
76194;SDS011;64964;48.694;21.206;2023-02-01T16:51:43;6.03;;;3.40;;
76194;SDS011;64964;48.694;21.206;2023-02-01T16:54:09;8.73;;;4.17;;
76194;SDS011;64964;48.694;21.206;2023-02-01T16:56:35;7.82;;;3.60;;
76194;SDS011;64964;48.694;21.206;2023-02-01T16:59:02;7.10;;;2.43;;
76194;SDS011;64964;48.694;21.206;2023-02-01T17:01:28;3.97;;;2.35;;
76194;SDS011;64964;48.694;21.206;2023-02-01T17:03:53;5.18;;;2.15;;
76194;SDS011;64964;48.694;21.206;2023-02-01T17:06:20;3.90;;;2.27;;
76194;SDS011;64964;48.694;21.206;2023-02-01T17:08:50;2.60;;;1.70;;
76194;SDS011;64964;48.694;21.206;2023-02-01T17:11:17;15.07;;;5.33;;
76194;SDS011;64964;48.694;21.206;2023-02-01T17:13:43;6.15;;;2.42;;
76194;SDS011;64964;48.694;21.206;2023-02-01T17:19:13;6.30;;;2.50;;
76194;SDS011;64964;48.694;21.206;2023-02-01T17:21:48;6.60;;;2.60;;
76194;SDS011;64964;48.694;21.206;2023-02-01T17:24:17;5.10;;;2.87;;
76194;SDS011;64964;48.694;21.206;2023-02-01T17:26:43;4.80;;;2.90;;
76194;SDS011;64964;48.694;21.206;2023-02-01T17:29:09;4.70;;;2.70;;
76194;SDS011;64964;48.694;21.206;2023-02-01T17:31:36;5.88;;;2.83;;
76194;SDS011;64964;48.694;21.206;2023-02-01T17:34:04;4.13;;;2.27;;